Time;durP1;ratioP1;P1;durP2;ratioP2;P2;SDS_P1;SDS_P2;PMS_P1;PMS_P2;Temp;Humidity;BMP_temperature;BMP_pressure;BME280_temperature;BME280_humidity;BME280_pressure;Samples;Min_cycle;Max_cycle;Signal;HPM_P1;HPM_P2
2022/12/31 00:00:40;;;;;;;0.73;0.70;;;14.20;90.20;;;;;;5051157;28;20029;-59
2022/12/31 00:03:07;;;;;;;1.00;0.80;;;14.20;90.30;;;;;;5051110;28;20090;-59
2022/12/31 00:05:35;;;;;;;1.17;0.70;;;14.20;90.40;;;;;;5045339;28;20387;-62
2022/12/31 00:08:01;;;;;;;0.60;0.57;;;14.20;90.40;;;;;;5053723;28;20064;-61
2022/12/31 00:10:28;;;;;;;0.90;0.52;;;14.20;90.60;;;;;;5047708;28;20029;-61
2022/12/31 00:12:54;;;;;;;0.77;0.60;;;14.20;90.60;;;;;;5051395;28;20035;-59
2022/12/31 00:15:20;;;;;;;0.40;0.40;;;14.20;90.60;;;;;;5045742;28;20033;-59
2022/12/31 00:17:45;;;;;;;0.60;0.60;;;14.20;90.60;;;;;;5056051;28;20036;-59
2022/12/31 00:20:11;;;;;;;0.40;0.40;;;14.30;90.70;;;;;;5047324;28;20033;-59
2022/12/31 00:22:37;;;;;;;0.73;0.30;;;14.30;90.80;;;;;;5054356;28;20043;-59
2022/12/31 00:25:03;;;;;;;0.30;0.30;;;14.30;90.80;;;;;;5045051;28;20028;-59
2022/12/31 00:27:30;;;;;;;0.32;0.30;;;14.30;90.80;;;;;;5049520;28;20132;-59
2022/12/31 00:29:55;;;;;;;1.48;0.32;;;14.30;90.70;;;;;;5045017;28;20029;-61
2022/12/31 00:32:21;;;;;;;5.43;0.45;;;14.30;90.70;;;;;;5048809;28;20376;-59
2022/12/31 00:34:47;;;;;;;0.20;0.20;;;14.20;90.70;;;;;;5046689;28;20040;-59
2022/12/31 00:37:12;;;;;;;0.20;0.20;;;14.20;90.70;;;;;;5049505;28;20048;-61
2022/12/31 00:39:38;;;;;;;0.65;0.22;;;14.20;90.70;;;;;;5047677;28;20028;-61
2022/12/31 00:42:04;;;;;;;0.20;0.20;;;14.20;90.70;;;;;;5045486;28;20511;-59
2022/12/31 00:44:29;;;;;;;0.30;0.30;;;14.10;90.80;;;;;;5047029;28;20036;-59
2022/12/31 00:46:55;;;;;;;0.65;0.50;;;14.10;90.90;;;;;;5046773;28;20552;-61
2022/12/31 00:49:21;;;;;;;0.10;0.10;;;14.00;90.90;;;;;;5047815;28;20033;-59
2022/12/31 00:51:47;;;;;;;0.13;0.13;;;14.00;91.00;;;;;;5046763;28;20032;-60
2022/12/31 00:54:13;;;;;;;0.38;0.20;;;14.00;91.10;;;;;;5048809;28;20132;-61
2022/12/31 00:56:39;;;;;;;0.30;0.30;;;13.90;91.10;;;;;;5046788;28;20164;-59
2022/12/31 00:59:05;;;;;;;0.30;0.20;;;13.90;91.10;;;;;;5049406;28;20099;-59
2022/12/31 01:01:33;;;;;;;0.20;0.20;;;14.00;91.40;;;;;;5046020;28;20025;-59
2022/12/31 01:04:06;;;;;;;1.10;0.40;;;13.90;91.00;;;;;;5045718;28;20033;-60
2022/12/31 01:06:32;;;;;;;0.25;0.20;;;13.90;91.00;;;;;;5044782;28;20033;-59
2022/12/31 01:08:57;;;;;;;0.63;0.30;;;13.90;91.00;;;;;;5048151;28;20530;-59
2022/12/31 01:11:27;;;;;;;0.30;0.20;;;13.90;91.00;;;;;;5043305;28;20403;-59
2022/12/31 01:14:09;;;;;;;0.75;0.50;;;13.90;91.00;;;;;;5042821;28;20424;-59
2022/12/31 01:16:42;;;;;;;0.63;0.52;;;13.90;90.90;;;;;;5041984;28;20086;-61
2022/12/31 01:19:14;;;;;;;0.75;0.40;;;13.90;90.90;;;;;;5044442;28;20033;-61
2022/12/31 01:21:40;;;;;;;0.47;0.47;;;13.90;91.00;;;;;;5049762;28;20040;-61
2022/12/31 01:24:08;;;;;;;0.68;0.45;;;13.90;90.90;;;;;;5044868;28;20061;-61
2022/12/31 01:26:34;;;;;;;1.25;0.77;;;13.90;90.90;;;;;;5046998;28;20029;-61
2022/12/31 01:28:59;;;;;;;0.73;0.40;;;13.90;90.90;;;;;;5044530;28;20075;-59
2022/12/31 01:31:26;;;;;;;0.38;0.38;;;13.90;90.90;;;;;;5050847;28;20110;-59
2022/12/31 01:33:52;;;;;;;3.15;0.50;;;13.90;91.20;;;;;;5041159;28;20032;-59
2022/12/31 01:36:24;;;;;;;0.55;0.55;;;13.80;90.90;;;;;;5048237;28;20108;-61
2022/12/31 01:38:50;;;;;;;0.47;0.47;;;13.80;90.90;;;;;;5046652;28;20039;-59
2022/12/31 01:41:20;;;;;;;0.20;0.20;;;13.80;90.90;;;;;;5046068;28;20033;-59
2022/12/31 01:43:48;;;;;;;1.17;0.52;;;13.80;90.90;;;;;;5044791;28;20576;-59
2022/12/31 01:46:26;;;;;;;1.67;0.40;;;13.80;90.90;;;;;;5048374;28;20387;-60
2022/12/31 01:48:55;;;;;;;1.13;0.40;;;13.80;90.80;;;;;;5046584;28;20021;-59
2022/12/31 01:51:21;;;;;;;0.50;0.50;;;13.80;90.80;;;;;;5055847;28;20024;-60
2022/12/31 01:53:48;;;;;;;0.30;0.30;;;13.80;90.80;;;;;;5044351;28;20095;-59
2022/12/31 01:56:14;;;;;;;0.85;0.60;;;13.90;90.70;;;;;;5043908;28;20094;-60
2022/12/31 01:58:47;;;;;;;1.50;0.60;;;13.80;90.70;;;;;;5050307;28;20368;-62
2022/12/31 02:01:19;;;;;;;0.38;0.38;;;13.80;90.70;;;;;;5052307;28;20032;-62
2022/12/31 02:03:45;;;;;;;0.40;0.40;;;13.80;90.70;;;;;;5049267;28;20059;-61
2022/12/31 02:06:23;;;;;;;0.90;0.50;;;13.80;90.70;;;;;;5047898;28;20464;-62
2022/12/31 02:08:49;;;;;;;1.75;0.45;;;13.90;90.70;;;;;;5053741;28;20491;-61
2022/12/31 02:11:30;;;;;;;0.30;0.30;;;13.90;90.60;;;;;;5052311;28;20504;-59
2022/12/31 02:13:59;;;;;;;0.50;0.40;;;13.90;90.50;;;;;;5051029;28;20053;-61
2022/12/31 02:16:49;;;;;;;0.32;0.32;;;13.90;90.50;;;;;;5047070;28;20371;-63
2022/12/31 02:19:52;;;;;;;0.70;0.57;;;13.90;90.60;;;;;;5055168;28;20101;-62
2022/12/31 02:22:47;;;;;;;0.30;0.30;;;13.80;90.50;;;;;;5055851;28;20820;-62
2022/12/31 02:25:34;;;;;;;0.95;0.50;;;13.80;90.60;;;;;;5047925;28;20021;-61
2022/12/31 02:28:44;;;;;;;0.47;0.47;;;13.80;90.60;;;;;;5048043;28;20032;-61
2022/12/31 02:31:12;;;;;;;0.30;0.30;;;13.80;90.60;;;;;;5010475;28;20030;-62
2022/12/31 02:33:47;;;;;;;0.52;0.52;;;13.70;90.50;;;;;;5049975;28;20523;-62
2022/12/31 02:36:21;;;;;;;2.40;0.98;;;13.70;90.50;;;;;;5074831;28;20021;-60
2022/12/31 02:38:48;;;;;;;0.52;0.50;;;13.70;90.50;;;;;;5049577;28;20029;-59
2022/12/31 02:44:01;;;;;;;0.43;0.43;;;13.70;90.50;;;;;;5051619;28;20036;-60
2022/12/31 02:46:44;;;;;;;2.00;0.60;;;13.70;90.50;;;;;;5051930;28;20025;-60
2022/12/31 02:49:16;;;;;;;0.60;0.60;;;13.80;90.50;;;;;;5046348;28;20104;-62
2022/12/31 02:51:58;;;;;;;1.42;0.70;;;13.80;90.50;;;;;;5050126;28;20132;-62
2022/12/31 02:54:39;;;;;;;0.77;0.57;;;13.80;90.40;;;;;;5048405;28;20543;-62
2022/12/31 02:57:19;;;;;;;0.95;0.22;;;13.80;90.40;;;;;;5060107;28;20041;-59
2022/12/31 03:02:42;;;;;;;1.17;0.65;;;13.80;90.40;;;;;;5045553;28;20135;-60
2022/12/31 03:05:10;;;;;;;0.60;0.60;;;13.70;90.40;;;;;;5051449;28;20070;-60
2022/12/31 03:07:38;;;;;;;0.70;0.52;;;13.70;90.40;;;;;;5049282;28;20041;-59
2022/12/31 03:10:04;;;;;;;0.32;0.30;;;13.70;90.40;;;;;;5050404;28;20021;-59
2022/12/31 03:12:45;;;;;;;0.32;0.32;;;13.70;90.40;;;;;;5050579;28;20443;-60
2022/12/31 03:15:21;;;;;;;1.90;0.93;;;13.70;90.40;;;;;;5046400;28;20151;-60
2022/12/31 03:17:55;;;;;;;0.32;0.32;;;13.70;90.50;;;;;;5052439;28;20025;-60
2022/12/31 03:23:11;;;;;;;0.85;0.32;;;13.60;90.60;;;;;;5051878;28;20491;-62
2022/12/31 03:25:40;;;;;;;0.70;0.52;;;13.60;90.50;;;;;;5047244;28;20465;-62
2022/12/31 03:28:08;;;;;;;0.70;0.30;;;13.60;90.50;;;;;;5046771;28;20155;-62
2022/12/31 03:30:36;;;;;;;0.35;0.35;;;13.60;90.50;;;;;;5046194;28;20060;-62
2022/12/31 03:33:04;;;;;;;1.20;0.38;;;13.60;90.50;;;;;;5046163;28;20025;-60
2022/12/31 03:35:32;;;;;;;5.35;0.68;;;13.60;90.50;;;;;;5046370;28;20028;-59
2022/12/31 03:37:57;;;;;;;0.40;0.40;;;13.60;90.50;;;;;;5053117;28;20025;-60
2022/12/31 03:40:25;;;;;;;2.40;0.52;;;13.60;90.50;;;;;;5048447;28;20097;-62
2022/12/31 03:42:51;;;;;;;1.92;0.60;;;13.60;90.50;;;;;;5045366;28;20175;-62
2022/12/31 03:45:18;;;;;;;1.08;0.55;;;13.60;90.50;;;;;;5049668;28;20115;-62
2022/12/31 03:47:44;;;;;;;2.33;0.57;;;13.60;90.50;;;;;;5034032;28;20126;-62
2022/12/31 03:50:11;;;;;;;0.55;0.40;;;13.50;90.50;;;;;;5049355;28;20029;-62
2022/12/31 03:52:37;;;;;;;0.50;0.30;;;13.50;90.50;;;;;;5053353;28;20043;-62
2022/12/31 03:55:04;;;;;;;1.85;0.50;;;13.50;90.50;;;;;;5047400;28;20395;-60
2022/12/31 03:57:30;;;;;;;0.80;0.63;;;13.50;90.50;;;;;;5048890;28;20437;-60
2022/12/31 03:59:55;;;;;;;1.20;0.68;;;13.50;90.40;;;;;;5050929;28;20033;-60
2022/12/31 04:02:21;;;;;;;0.63;0.60;;;13.50;90.40;;;;;;5047145;28;20524;-62
2022/12/31 04:04:47;;;;;;;1.02;0.57;;;13.50;90.40;;;;;;5048560;28;20108;-62
2022/12/31 04:07:12;;;;;;;0.45;0.40;;;13.50;90.40;;;;;;5050075;28;20572;-62
2022/12/31 04:09:38;;;;;;;0.68;0.68;;;13.60;90.40;;;;;;5048431;28;20033;-62
2022/12/31 04:12:04;;;;;;;4.25;0.75;;;13.60;90.30;;;;;;5055664;28;20033;-62
2022/12/31 04:14:30;;;;;;;1.33;0.85;;;13.60;90.30;;;;;;5049767;28;20037;-62
2022/12/31 04:16:56;;;;;;;0.70;0.50;;;13.60;90.30;;;;;;5053078;28;20041;-62
2022/12/31 04:19:21;;;;;;;0.65;0.50;;;13.60;90.30;;;;;;5052491;28;20032;-62
2022/12/31 04:21:47;;;;;;;0.93;0.40;;;13.60;90.30;;;;;;5048107;28;20110;-62
2022/12/31 04:24:13;;;;;;;1.30;0.65;;;13.60;90.30;;;;;;5045886;28;20395;-62
2022/12/31 04:26:39;;;;;;;0.82;0.70;;;13.60;90.40;;;;;;5044267;28;20035;-62
2022/12/31 04:29:05;;;;;;;1.15;0.80;;;13.60;90.40;;;;;;5048036;28;20056;-59
2022/12/31 04:31:31;;;;;;;0.52;0.40;;;13.60;90.40;;;;;;5046828;28;20063;-60
2022/12/31 04:33:57;;;;;;;0.73;0.70;;;13.60;90.40;;;;;;5045952;28;20031;-59
2022/12/31 04:36:23;;;;;;;1.25;0.68;;;13.60;90.40;;;;;;5048450;28;20029;-61
2022/12/31 04:38:48;;;;;;;0.50;0.50;;;13.60;90.40;;;;;;5049040;28;20116;-62
2022/12/31 04:41:17;;;;;;;1.15;0.73;;;13.60;90.30;;;;;;5044793;28;20036;-61
2022/12/31 04:43:45;;;;;;;0.98;0.80;;;13.60;90.30;;;;;;5045766;28;20033;-59
2022/12/31 04:46:11;;;;;;;0.70;0.70;;;13.60;90.40;;;;;;5052226;28;20099;-62
2022/12/31 04:48:37;;;;;;;0.40;0.40;;;13.60;90.40;;;;;;5049473;28;20100;-61
2022/12/31 04:51:03;;;;;;;0.60;0.60;;;13.60;90.70;;;;;;5047258;28;20029;-61
2022/12/31 04:53:28;;;;;;;0.47;0.40;;;13.60;90.50;;;;;;5047010;28;20025;-62
2022/12/31 04:55:55;;;;;;;0.85;0.73;;;13.60;90.40;;;;;;5044221;28;20028;-60
2022/12/31 04:58:21;;;;;;;0.73;0.63;;;13.60;90.40;;;;;;5044285;28;20052;-60
2022/12/31 05:00:50;;;;;;;0.65;0.50;;;13.60;90.40;;;;;;5048380;28;20411;-60
2022/12/31 05:03:17;;;;;;;0.50;0.50;;;13.60;90.40;;;;;;5046119;28;20035;-60
2022/12/31 05:05:43;;;;;;;1.27;0.65;;;13.70;90.30;;;;;;5047288;28;20041;-60
2022/12/31 05:08:10;;;;;;;0.50;0.50;;;13.60;90.30;;;;;;5050154;28;20052;-62
2022/12/31 05:10:36;;;;;;;0.82;0.55;;;13.60;90.30;;;;;;5045919;28;20032;-62
2022/12/31 05:13:02;;;;;;;0.50;0.50;;;13.60;90.30;;;;;;5046995;28;20032;-60
2022/12/31 05:15:28;;;;;;;2.10;0.70;;;13.70;90.40;;;;;;5046562;28;20036;-62
2022/12/31 05:17:54;;;;;;;1.23;0.65;;;13.70;90.30;;;;;;5047232;28;20036;-62
2022/12/31 05:20:19;;;;;;;0.43;0.43;;;13.70;90.30;;;;;;5048074;28;20033;-59
2022/12/31 05:22:45;;;;;;;0.45;0.45;;;13.60;90.30;;;;;;5047401;28;20064;-62
2022/12/31 05:25:11;;;;;;;0.57;0.40;;;13.70;90.40;;;;;;5046562;28;20333;-62
2022/12/31 05:27:36;;;;;;;1.80;0.65;;;13.70;90.40;;;;;;5052261;28;20045;-60
2022/12/31 05:30:04;;;;;;;0.40;0.40;;;13.70;90.40;;;;;;5043263;28;20036;-62
2022/12/31 05:32:30;;;;;;;0.32;0.32;;;13.70;90.40;;;;;;5041608;28;20033;-62
2022/12/31 05:34:56;;;;;;;0.52;0.50;;;13.70;90.40;;;;;;5047251;28;20033;-62
2022/12/31 05:37:22;;;;;;;0.22;0.22;;;13.70;90.40;;;;;;5051009;28;20111;-60
2022/12/31 05:39:48;;;;;;;0.40;0.40;;;13.70;90.50;;;;;;5049133;28;20424;-60
2022/12/31 05:42:13;;;;;;;0.30;0.30;;;13.70;90.60;;;;;;5053058;28;20480;-60
2022/12/31 05:44:39;;;;;;;0.28;0.28;;;13.70;90.70;;;;;;5047804;28;20090;-59
2022/12/31 05:47:05;;;;;;;0.20;0.20;;;13.70;90.70;;;;;;5050334;28;20037;-62
2022/12/31 05:49:30;;;;;;;0.65;0.30;;;13.70;90.70;;;;;;5050432;28;20359;-62
2022/12/31 05:51:56;;;;;;;0.20;0.20;;;13.70;90.60;;;;;;5051972;28;20506;-60
2022/12/31 05:54:22;;;;;;;0.10;0.10;;;13.70;90.70;;;;;;5057485;28;20033;-62
2022/12/31 05:56:47;;;;;;;0.30;0.17;;;13.80;90.70;;;;;;5053515;28;20037;-62
2022/12/31 05:59:13;;;;;;;0.10;0.10;;;13.80;90.80;;;;;;5050524;28;20041;-62
2022/12/31 06:01:38;;;;;;;0.10;0.10;;;13.80;90.80;;;;;;5051573;28;20037;-62
2022/12/31 06:04:04;;;;;;;0.10;0.10;;;13.80;90.80;;;;;;5048131;28;20151;-62
2022/12/31 06:06:30;;;;;;;0.20;0.20;;;13.80;90.70;;;;;;5050046;28;20061;-60
2022/12/31 06:08:56;;;;;;;0.20;0.20;;;13.80;90.70;;;;;;5045914;28;20055;-62
2022/12/31 06:11:22;;;;;;;0.17;0.17;;;13.80;90.70;;;;;;5048689;28;20053;-62
2022/12/31 06:13:48;;;;;;;0.30;0.10;;;13.80;90.80;;;;;;5050424;28;20029;-60
2022/12/31 06:16:13;;;;;;;0.20;0.20;;;13.80;90.80;;;;;;5052330;28;20445;-60
2022/12/31 06:18:39;;;;;;;0.20;0.20;;;13.80;90.80;;;;;;5049029;28;20392;-60
2022/12/31 06:21:05;;;;;;;5.80;0.30;;;13.80;90.80;;;;;;5048613;28;20025;-60
2022/12/31 06:23:31;;;;;;;0.10;0.10;;;13.80;90.80;;;;;;5061627;28;20044;-59
2022/12/31 06:26:00;;;;;;;0.40;0.30;;;13.90;90.80;;;;;;5048823;28;20107;-60
2022/12/31 06:28:25;;;;;;;0.30;0.30;;;13.90;90.80;;;;;;5051007;28;20453;-62
2022/12/31 06:31:01;;;;;;;0.30;0.30;;;13.90;90.80;;;;;;5047400;28;20112;-62
2022/12/31 06:33:27;;;;;;;0.40;0.40;;;13.90;90.70;;;;;;5050941;28;20025;-62
2022/12/31 06:35:57;;;;;;;0.20;0.20;;;13.90;90.70;;;;;;5051260;28;20043;-62
2022/12/31 06:38:24;;;;;;;0.32;0.32;;;14.00;90.80;;;;;;5057174;28;20033;-62
2022/12/31 06:40:50;;;;;;;0.43;0.30;;;14.00;90.80;;;;;;5046475;28;20026;-62
2022/12/31 06:43:15;;;;;;;0.20;0.20;;;14.00;90.80;;;;;;5048853;28;20773;-60
2022/12/31 06:45:41;;;;;;;0.30;0.30;;;14.00;90.80;;;;;;5053926;28;20075;-60
2022/12/31 06:48:07;;;;;;;0.20;0.20;;;14.00;90.80;;;;;;5048844;28;20052;-60
2022/12/31 06:50:33;;;;;;;0.20;0.20;;;14.00;90.80;;;;;;5053453;28;20407;-60
2022/12/31 06:52:59;;;;;;;1.95;0.40;;;14.00;90.80;;;;;;5050478;28;20288;-60
2022/12/31 06:55:25;;;;;;;0.20;0.20;;;14.10;91.00;;;;;;5051780;28;20118;-59
2022/12/31 06:57:51;;;;;;;0.20;0.20;;;14.10;91.10;;;;;;5053782;28;20032;-62
2022/12/31 07:00:17;;;;;;;0.10;0.10;;;14.20;91.20;;;;;;5049667;28;20025;-62
2022/12/31 07:03:04;;;;;;;0.30;0.10;;;14.20;91.20;;;;;;5048879;28;20029;-60
2022/12/31 07:06:08;;;;;;;0.30;0.20;;;14.30;91.20;;;;;;5047324;28;20035;-60
2022/12/31 07:08:54;;;;;;;0.20;0.20;;;14.30;91.30;;;;;;5046100;28;20148;-62
2022/12/31 07:11:42;;;;;;;0.93;0.20;;;14.40;91.50;;;;;;5051029;28;20040;-62
2022/12/31 07:14:20;;;;;;;0.30;0.22;;;14.50;91.60;;;;;;5046430;28;20126;-62
2022/12/31 07:16:54;;;;;;;0.25;0.22;;;14.50;91.60;;;;;;5050257;28;20471;-62
2022/12/31 07:19:41;;;;;;;1.67;0.32;;;14.50;91.70;;;;;;5048983;28;20060;-60
2022/12/31 07:22:13;;;;;;;0.45;0.22;;;14.60;91.60;;;;;;5048404;28;20029;-61
2022/12/31 07:24:39;;;;;;;0.15;0.15;;;14.60;91.60;;;;;;5047475;28;20024;-62
2022/12/31 07:27:19;;;;;;;0.17;0.17;;;14.70;91.60;;;;;;5046684;28;20053;-62
2022/12/31 07:30:01;;;;;;;0.40;0.40;;;14.70;91.40;;;;;;5045237;28;20029;-62
2022/12/31 07:32:26;;;;;;;0.20;0.20;;;14.80;91.40;;;;;;5046042;28;20025;-62
2022/12/31 07:35:10;;;;;;;0.40;0.40;;;14.80;91.30;;;;;;5047406;28;20102;-62
2022/12/31 07:37:39;;;;;;;0.40;0.40;;;14.80;91.30;;;;;;5054933;28;20043;-60
2022/12/31 07:40:12;;;;;;;0.47;0.38;;;14.80;91.40;;;;;;5047084;28;20065;-60
2022/12/31 07:42:57;;;;;;;0.63;0.50;;;14.80;91.40;;;;;;5058508;28;20033;-62
2022/12/31 07:45:34;;;;;;;1.10;0.20;;;14.80;91.30;;;;;;5047277;28;20029;-62
2022/12/31 07:48:00;;;;;;;0.63;0.60;;;14.80;91.30;;;;;;5047226;28;20028;-62
2022/12/31 07:50:26;;;;;;;0.65;0.63;;;14.80;91.30;;;;;;5047997;28;20107;-60
2022/12/31 07:52:52;;;;;;;0.57;0.43;;;14.80;91.30;;;;;;5061948;28;20491;-63
2022/12/31 07:55:18;;;;;;;0.40;0.40;;;14.80;91.30;;;;;;5047620;28;20135;-62
2022/12/31 07:58:02;;;;;;;0.30;0.30;;;14.80;91.30;;;;;;5068698;28;20032;-62
2022/12/31 08:00:29;;;;;;;1.23;0.38;;;14.80;91.30;;;;;;5054399;28;20045;-62
2022/12/31 08:03:31;;;;;;;0.30;0.28;;;14.80;91.40;;;;;;5047876;28;20340;-62
2022/12/31 08:06:10;;;;;;;2.73;0.40;;;14.80;91.40;;;;;;5045715;28;20036;-60
2022/12/31 08:08:49;;;;;;;0.47;0.47;;;14.80;91.40;;;;;;5056031;28;20757;-60
2022/12/31 08:11:26;;;;;;;0.43;0.40;;;14.80;91.50;;;;;;5054540;28;20074;-60
2022/12/31 08:13:55;;;;;;;1.80;0.63;;;14.80;91.50;;;;;;5047623;28;20111;-68
2022/12/31 08:16:21;;;;;;;0.95;0.55;;;14.90;91.40;;;;;;5042783;28;20224;-68
2022/12/31 08:18:47;;;;;;;0.30;0.30;;;14.90;91.40;;;;;;5042582;28;20032;-68
2022/12/31 08:21:35;;;;;;;0.50;0.30;;;14.90;91.50;;;;;;5072239;28;20029;-62
2022/12/31 08:24:10;;;;;;;0.10;0.10;;;14.80;91.60;;;;;;5044213;28;20032;-66
2022/12/31 08:26:50;;;;;;;0.20;0.20;;;14.70;91.70;;;;;;5050126;28;20025;-62
2022/12/31 08:29:25;;;;;;;0.47;0.40;;;14.70;91.70;;;;;;5049327;28;20025;-63
2022/12/31 08:32:01;;;;;;;0.10;0.10;;;14.60;91.70;;;;;;5049921;28;20543;-63
2022/12/31 08:34:52;;;;;;;0.20;0.20;;;14.60;91.70;;;;;;5046505;28;20524;-63
2022/12/31 08:37:40;;;;;;;0.10;0.10;;;14.60;91.60;;;;;;5047042;28;20022;-61
2022/12/31 08:40:25;;;;;;;1.75;0.30;;;14.60;91.60;;;;;;5051700;28;20032;-69
2022/12/31 08:43:11;;;;;;;0.28;0.22;;;14.60;91.50;;;;;;5055107;28;20024;-60
2022/12/31 08:45:42;;;;;;;0.20;0.20;;;14.60;91.50;;;;;;5056032;28;20029;-61
2022/12/31 08:48:36;;;;;;;0.20;0.20;;;14.60;91.50;;;;;;5051929;28;20380;-61
2022/12/31 08:51:02;;;;;;;0.52;0.30;;;14.60;91.40;;;;;;5047599;28;20040;-68
2022/12/31 08:53:28;;;;;;;0.20;0.20;;;14.60;91.40;;;;;;5042015;28;20041;-68
2022/12/31 08:56:03;;;;;;;0.20;0.20;;;14.60;91.40;;;;;;5035152;28;20495;-65
2022/12/31 08:58:44;;;;;;;0.60;0.43;;;14.60;91.40;;;;;;5041831;28;20391;-66
2022/12/31 09:01:12;;;;;;;0.30;0.30;;;14.60;91.40;;;;;;5049717;28;20032;-67
2022/12/31 09:03:50;;;;;;;0.30;0.30;;;14.50;91.40;;;;;;5042781;28;20057;-60
2022/12/31 09:06:51;;;;;;;0.10;0.10;;;14.50;91.40;;;;;;5035535;28;20038;-60
2022/12/31 09:09:25;;;;;;;1.55;0.77;;;14.60;91.40;;;;;;5034798;28;20049;-61
2022/12/31 09:12:26;;;;;;;0.28;0.28;;;14.50;91.50;;;;;;5037308;28;20072;-65
2022/12/31 09:15:12;;;;;;;2.40;0.73;;;14.60;91.40;;;;;;5052722;28;20139;-65
2022/12/31 09:17:45;;;;;;;0.80;0.60;;;14.60;91.40;;;;;;5053379;28;20048;-64
2022/12/31 09:20:22;;;;;;;0.55;0.40;;;14.60;91.40;;;;;;5050226;28;20035;-68
2022/12/31 09:22:49;;;;;;;1.60;0.40;;;14.70;91.40;;;;;;5051581;28;20051;-69
2022/12/31 09:25:17;;;;;;;1.08;0.70;;;14.70;91.30;;;;;;5051045;28;20025;-69
2022/12/31 09:27:50;;;;;;;1.10;1.00;;;14.70;91.30;;;;;;5049151;28;20021;-69
2022/12/31 09:30:17;;;;;;;5.18;1.42;;;14.80;91.30;;;;;;5050817;28;20056;-70
2022/12/31 09:33:14;;;;;;;0.90;0.60;;;14.80;91.30;;;;;;5045274;28;20034;-67
2022/12/31 09:35:57;;;;;;;1.02;0.70;;;14.80;91.20;;;;;;5050855;28;20510;-66
2022/12/31 09:38:44;;;;;;;0.95;0.73;;;14.80;91.20;;;;;;5043848;28;20426;-68
2022/12/31 09:41:48;;;;;;;3.70;0.85;;;14.80;91.20;;;;;;5041693;28;20086;-64
2022/12/31 09:44:38;;;;;;;1.52;1.42;;;14.90;91.10;;;;;;5057197;28;20033;-65
2022/12/31 09:47:28;;;;;;;1.67;1.02;;;14.90;91.10;;;;;;5044533;28;20049;-61
2022/12/31 09:50:27;;;;;;;1.55;1.05;;;14.90;91.10;;;;;;5060513;28;20039;-67
2022/12/31 09:52:59;;;;;;;1.50;0.40;;;15.00;91.10;;;;;;5047289;28;20056;-65
2022/12/31 09:56:04;;;;;;;2.10;0.60;;;15.00;91.10;;;;;;5053290;28;20021;-64
2022/12/31 09:58:58;;;;;;;0.47;0.43;;;15.10;91.00;;;;;;5049328;28;20491;-64
2022/12/31 10:01:46;;;;;;;1.27;0.80;;;15.20;90.90;;;;;;5058302;28;20033;-64
2022/12/31 10:04:46;;;;;;;2.70;0.80;;;15.20;90.90;;;;;;5048503;28;20104;-64
2022/12/31 10:07:43;;;;;;;0.38;0.38;;;15.30;90.80;;;;;;5051708;28;20037;-59
2022/12/31 10:10:24;;;;;;;3.55;0.80;;;15.40;90.80;;;;;;5042457;28;20024;-64
2022/12/31 10:12:53;;;;;;;1.67;0.80;;;15.40;90.80;;;;;;5038376;28;20041;-59
2022/12/31 10:15:25;;;;;;;2.03;0.50;;;15.50;90.80;;;;;;5044384;28;20110;-58
2022/12/31 10:18:09;;;;;;;0.82;0.55;;;15.50;90.80;;;;;;5044488;28;20387;-59
2022/12/31 10:20:53;;;;;;;0.70;0.30;;;15.60;90.80;;;;;;5046822;28;20036;-59
2022/12/31 10:23:57;;;;;;;0.70;0.60;;;15.70;90.70;;;;;;5044992;28;20059;-62
2022/12/31 10:26:33;;;;;;;5.90;2.60;;;15.80;90.60;;;;;;5035179;28;20013;-62
2022/12/31 10:29:27;;;;;;;1.85;1.38;;;15.80;90.50;;;;;;5053804;28;20415;-63
2022/12/31 10:32:02;;;;;;;1.30;0.68;;;15.90;90.50;;;;;;5047862;28;20025;-58
2022/12/31 10:34:59;;;;;;;1.85;1.27;;;15.90;90.40;;;;;;5042940;28;20534;-58
2022/12/31 10:37:39;;;;;;;3.47;2.33;;;16.00;90.40;;;;;;5027051;28;20037;-63
2022/12/31 10:40:08;;;;;;;2.22;1.38;;;16.00;90.30;;;;;;5033452;28;20036;-63
2022/12/31 10:42:57;;;;;;;0.50;0.50;;;16.00;90.30;;;;;;5049977;28;20021;-62
2022/12/31 10:45:29;;;;;;;1.02;0.70;;;16.00;90.30;;;;;;5055563;28;20483;-58
2022/12/31 10:48:11;;;;;;;2.75;0.60;;;16.10;90.30;;;;;;5050445;28;20551;-58
2022/12/31 10:51:17;;;;;;;0.80;0.73;;;16.10;90.30;;;;;;5046233;28;20044;-58
2022/12/31 10:54:08;;;;;;;1.08;0.73;;;16.10;90.20;;;;;;5040195;28;20028;-58
2022/12/31 10:57:06;;;;;;;3.58;0.90;;;16.20;90.20;;;;;;5047380;28;20077;-59
2022/12/31 10:59:45;;;;;;;1.08;0.70;;;16.20;90.10;;;;;;5044158;28;20540;-58
2022/12/31 11:02:22;;;;;;;1.33;0.90;;;16.20;90.10;;;;;;5047277;28;20103;-58
2022/12/31 11:05:09;;;;;;;2.42;0.88;;;16.20;90.10;;;;;;5045913;28;20483;-59
2022/12/31 11:08:07;;;;;;;0.65;0.50;;;16.30;90.30;;;;;;5045870;28;20418;-59
2022/12/31 11:11:14;;;;;;;1.70;0.70;;;16.30;90.00;;;;;;5049633;28;20021;-59
2022/12/31 11:14:11;;;;;;;0.95;0.70;;;16.30;89.90;;;;;;5036927;28;20068;-59
2022/12/31 11:17:02;;;;;;;1.73;1.17;;;16.30;89.90;;;;;;5043460;28;20112;-58
2022/12/31 11:19:40;;;;;;;1.85;0.82;;;16.30;89.80;;;;;;5053363;28;20177;-63
2022/12/31 11:22:27;;;;;;;1.90;0.95;;;16.30;89.90;;;;;;5043329;28;20063;-58
2022/12/31 11:25:11;;;;;;;2.40;1.00;;;16.30;89.80;;;;;;5045060;28;20039;-60
2022/12/31 11:27:59;;;;;;;6.22;1.95;;;16.30;89.80;;;;;;5040453;28;20044;-58
2022/12/31 11:31:00;;;;;;;5.82;1.65;;;16.30;89.90;;;;;;5049504;28;20103;-59
2022/12/31 11:33:40;;;;;;;2.55;1.15;;;16.30;89.90;;;;;;5032044;28;20472;-58
2022/12/31 11:36:29;;;;;;;2.25;1.05;;;16.30;90.00;;;;;;5044486;28;20041;-58
2022/12/31 11:39:12;;;;;;;2.45;1.10;;;16.30;89.90;;;;;;5038640;28;20045;-58
2022/12/31 11:41:50;;;;;;;0.88;0.82;;;16.30;89.80;;;;;;5050665;28;20086;-58
2022/12/31 11:44:44;;;;;;;1.23;1.00;;;16.30;89.70;;;;;;5037747;28;20028;-58
2022/12/31 11:47:32;;;;;;;3.15;1.92;;;16.40;89.70;;;;;;5045327;28;20059;-62
2022/12/31 11:50:21;;;;;;;3.22;1.10;;;16.40;89.50;;;;;;5029976;28;20041;-62
2022/12/31 11:53:11;;;;;;;2.60;0.60;;;16.40;89.40;;;;;;5041751;28;20487;-62
2022/12/31 11:55:59;;;;;;;2.55;1.33;;;16.50;89.20;;;;;;5053461;28;20041;-57
2022/12/31 11:58:27;;;;;;;1.70;1.38;;;16.50;89.50;;;;;;5048225;28;20112;-58
2022/12/31 12:00:59;;;;;;;2.22;0.80;;;16.50;88.40;;;;;;5042959;28;20029;-57
2022/12/31 12:03:26;;;;;;;3.00;0.57;;;16.60;88.00;;;;;;5054183;28;20052;-62
2022/12/31 12:05:51;;;;;;;1.75;0.68;;;16.60;87.20;;;;;;5055356;28;20095;-63
2022/12/31 12:08:18;;;;;;;1.02;0.85;;;16.70;87.20;;;;;;5043301;28;20045;-62
2022/12/31 12:11:17;;;;;;;2.58;1.08;;;16.70;86.60;;;;;;5047245;28;20082;-62
2022/12/31 12:13:43;;;;;;;0.73;0.60;;;16.70;86.50;;;;;;5047952;28;20047;-62
2022/12/31 12:16:09;;;;;;;1.27;1.13;;;16.80;85.50;;;;;;5049883;28;20037;-62
2022/12/31 12:18:41;;;;;;;0.95;0.80;;;16.80;85.20;;;;;;5045738;28;20029;-62
2022/12/31 12:21:20;;;;;;;1.45;0.60;;;16.80;84.90;;;;;;5046683;28;20028;-62
2022/12/31 12:24:01;;;;;;;2.38;1.30;;;16.90;84.80;;;;;;5045970;28;20092;-63
2022/12/31 12:26:33;;;;;;;1.45;0.80;;;16.90;84.10;;;;;;5032052;28;20612;-62
2022/12/31 12:29:15;;;;;;;3.17;1.38;;;16.90;84.00;;;;;;5041066;28;20483;-62
2022/12/31 12:31:41;;;;;;;1.58;0.93;;;17.00;83.80;;;;;;5039488;28;20410;-58
2022/12/31 12:34:23;;;;;;;2.75;1.02;;;17.00;83.90;;;;;;5036730;28;20055;-58
2022/12/31 12:36:48;;;;;;;0.93;0.88;;;17.00;84.10;;;;;;5038155;28;20024;-62
2022/12/31 12:39:20;;;;;;;6.78;2.67;;;16.90;84.20;;;;;;5033600;28;20032;-63
2022/12/31 12:41:45;;;;;;;1.60;0.83;;;16.90;84.60;;;;;;5035037;28;20029;-62
2022/12/31 12:44:15;;;;;;;0.65;0.60;;;16.90;84.90;;;;;;5036666;28;20789;-63
2022/12/31 12:46:47;;;;;;;1.83;0.70;;;16.80;85.10;;;;;;5034187;28;20108;-62
2022/12/31 12:49:24;;;;;;;3.08;2.15;;;16.80;85.30;;;;;;5038373;28;20114;-62
2022/12/31 12:52:31;;;;;;;2.33;1.92;;;16.70;85.50;;;;;;5044234;28;20052;-62
2022/12/31 12:55:31;;;;;;;2.72;1.33;;;16.70;85.60;;;;;;5032363;28;20044;-62
2022/12/31 12:58:03;;;;;;;12.48;6.85;;;16.70;85.70;;;;;;5026535;28;20045;-62
2022/12/31 13:01:01;;;;;;;4.47;3.03;;;16.60;86.00;;;;;;5023056;28;20033;-58
2022/12/31 13:03:32;;;;;;;9.10;7.00;;;16.70;86.00;;;;;;5024904;28;20049;-59
2022/12/31 13:06:13;;;;;;;9.90;3.63;;;16.60;85.90;;;;;;5025012;28;20396;-58
2022/12/31 13:08:45;;;;;;;6.47;1.23;;;16.60;85.90;;;;;;5041400;28;20504;-63
2022/12/31 13:11:21;;;;;;;8.70;1.30;;;16.60;85.80;;;;;;5047717;28;20050;-62
2022/12/31 13:14:39;;;;;;;1.58;0.80;;;16.60;85.70;;;;;;5027671;28;20025;-62
2022/12/31 13:17:44;;;;;;;3.80;1.08;;;16.60;85.20;;;;;;5029619;28;20041;-62
2022/12/31 13:20:33;;;;;;;3.90;1.00;;;16.70;85.20;;;;;;5034091;28;20408;-58
2022/12/31 13:23:13;;;;;;;3.25;1.20;;;16.70;85.20;;;;;;5035010;28;20480;-63
2022/12/31 13:26:01;;;;;;;2.05;0.63;;;16.70;85.10;;;;;;5036900;28;20416;-58
2022/12/31 13:28:27;;;;;;;0.98;0.88;;;16.70;84.80;;;;;;5040254;28;20025;-59
2022/12/31 13:31:01;;;;;;;3.50;1.25;;;16.70;84.80;;;;;;5040928;28;20025;-59
2022/12/31 13:33:36;;;;;;;0.50;0.50;;;16.80;84.70;;;;;;5034589;28;20029;-59